West Van Lear, Kentucky
Current Conditions -  °F | °C
As of 2:55 AM on Friday 19 Dec 2014 (Local Time) from KSJS Reporting Station
Overcast Overcast  
Wind Chill: 30°   Ceiling: 7000
Heat Index: 30°   Visibility: 10mi
Dew Point: 25°   Wind: 0mph
Humidity: 82%   Direction: NA
Pressure: 30.21"   Gusts: NA
Location:  37.79°N, 82.77°W
Report Text: KSJS 190755Z AUTO 00000KT 10SM SCT018 OVC070 M01/M04 A3021 RMK AO2 T10111039
Loading
Personal Weather Stations






























Interactive Weather Map New forecast layout! Learn more

10-Day Weather Forecast

Advertisements
Track Severe Weather on mobile